sensor_id;sensor_type;location;lat;lon;timestamp;P1;durP1;ratioP1;P2;durP2;ratioP2
76540;SDS011;65385;55.772;37.658;2024-03-06T00:00:40;7.75;;;3.45;;
76540;SDS011;65385;55.772;37.658;2024-03-06T00:01:40;3.30;;;2.70;;
76540;SDS011;65385;55.772;37.658;2024-03-06T00:02:41;4.25;;;2.63;;
76540;SDS011;65385;55.772;37.658;2024-03-06T00:03:42;3.58;;;3.28;;
76540;SDS011;65385;55.772;37.658;2024-03-06T00:04:42;4.68;;;2.50;;
76540;SDS011;65385;55.772;37.658;2024-03-06T00:05:43;6.55;;;3.40;;
76540;SDS011;65385;55.772;37.658;2024-03-06T00:06:45;3.53;;;2.90;;
76540;SDS011;65385;55.772;37.658;2024-03-06T00:07:45;3.70;;;2.45;;
76540;SDS011;65385;55.772;37.658;2024-03-06T00:08:46;6.97;;;2.90;;
76540;SDS011;65385;55.772;37.658;2024-03-06T00:09:47;5.47;;;3.03;;
76540;SDS011;65385;55.772;37.658;2024-03-06T00:10:48;6.35;;;2.65;;
76540;SDS011;65385;55.772;37.658;2024-03-06T00:11:48;10.63;;;3.28;;
76540;SDS011;65385;55.772;37.658;2024-03-06T00:12:51;3.92;;;3.00;;
76540;SDS011;65385;55.772;37.658;2024-03-06T00:13:51;7.07;;;4.28;;
76540;SDS011;65385;55.772;37.658;2024-03-06T00:14:52;6.28;;;2.80;;
76540;SDS011;65385;55.772;37.658;2024-03-06T00:15:53;5.65;;;2.97;;
76540;SDS011;65385;55.772;37.658;2024-03-06T00:16:53;5.93;;;3.72;;
76540;SDS011;65385;55.772;37.658;2024-03-06T00:17:56;4.30;;;2.30;;
76540;SDS011;65385;55.772;37.658;2024-03-06T00:18:57;4.10;;;2.75;;
76540;SDS011;65385;55.772;37.658;2024-03-06T00:19:57;8.68;;;3.20;;
76540;SDS011;65385;55.772;37.658;2024-03-06T00:20:58;8.35;;;2.90;;
76540;SDS011;65385;55.772;37.658;2024-03-06T00:21:59;2.78;;;2.22;;
76540;SDS011;65385;55.772;37.658;2024-03-06T00:23:01;5.32;;;3.40;;
76540;SDS011;65385;55.772;37.658;2024-03-06T00:24:02;7.13;;;3.50;;
76540;SDS011;65385;55.772;37.658;2024-03-06T00:25:04;3.58;;;2.60;;
76540;SDS011;65385;55.772;37.658;2024-03-06T00:26:05;4.55;;;3.15;;
76540;SDS011;65385;55.772;37.658;2024-03-06T00:27:05;3.70;;;2.67;;
76540;SDS011;65385;55.772;37.658;2024-03-06T00:28:06;11.57;;;3.50;;
76540;SDS011;65385;55.772;37.658;2024-03-06T00:29:07;6.20;;;3.50;;
76540;SDS011;65385;55.772;37.658;2024-03-06T00:30:07;4.18;;;3.00;;
76540;SDS011;65385;55.772;37.658;2024-03-06T00:31:08;6.13;;;2.90;;
76540;SDS011;65385;55.772;37.658;2024-03-06T00:32:09;5.60;;;2.30;;
76540;SDS011;65385;55.772;37.658;2024-03-06T00:33:10;5.25;;;2.92;;
76540;SDS011;65385;55.772;37.658;2024-03-06T00:34:10;8.27;;;3.25;;
76540;SDS011;65385;55.772;37.658;2024-03-06T00:35:13;5.13;;;3.08;;
76540;SDS011;65385;55.772;37.658;2024-03-06T00:36:14;5.07;;;2.42;;
76540;SDS011;65385;55.772;37.658;2024-03-06T00:37:14;6.65;;;3.60;;
76540;SDS011;65385;55.772;37.658;2024-03-06T00:38:15;6.43;;;2.83;;
76540;SDS011;65385;55.772;37.658;2024-03-06T00:39:16;7.03;;;3.33;;
76540;SDS011;65385;55.772;37.658;2024-03-06T00:40:16;4.20;;;3.00;;
76540;SDS011;65385;55.772;37.658;2024-03-06T00:41:17;4.43;;;3.20;;
76540;SDS011;65385;55.772;37.658;2024-03-06T00:42:18;4.10;;;2.72;;
76540;SDS011;65385;55.772;37.658;2024-03-06T00:43:18;3.78;;;3.10;;
76540;SDS011;65385;55.772;37.658;2024-03-06T00:44:20;4.60;;;2.90;;
76540;SDS011;65385;55.772;37.658;2024-03-06T00:45:20;4.95;;;2.60;;
76540;SDS011;65385;55.772;37.658;2024-03-06T00:46:21;5.97;;;3.38;;
76540;SDS011;65385;55.772;37.658;2024-03-06T00:47:22;3.20;;;2.45;;
76540;SDS011;65385;55.772;37.658;2024-03-06T00:48:23;5.55;;;2.95;;
76540;SDS011;65385;55.772;37.658;2024-03-06T00:49:23;4.40;;;2.55;;
76540;SDS011;65385;55.772;37.658;2024-03-06T00:50:24;2.80;;;2.58;;
76540;SDS011;65385;55.772;37.658;2024-03-06T00:51:24;5.47;;;3.38;;
76540;SDS011;65385;55.772;37.658;2024-03-06T00:52:25;5.30;;;2.58;;
76540;SDS011;65385;55.772;37.658;2024-03-06T00:53:25;4.63;;;2.50;;
76540;SDS011;65385;55.772;37.658;2024-03-06T00:54:26;6.82;;;3.00;;
76540;SDS011;65385;55.772;37.658;2024-03-06T00:55:26;8.65;;;3.05;;
76540;SDS011;65385;55.772;37.658;2024-03-06T00:56:27;6.45;;;3.63;;
76540;SDS011;65385;55.772;37.658;2024-03-06T00:57:28;5.82;;;3.00;;
76540;SDS011;65385;55.772;37.658;2024-03-06T00:58:28;4.35;;;2.70;;
76540;SDS011;65385;55.772;37.658;2024-03-06T00:59:29;6.25;;;3.35;;
76540;SDS011;65385;55.772;37.658;2024-03-06T01:00:29;7.70;;;3.92;;
76540;SDS011;65385;55.772;37.658;2024-03-06T01:01:30;5.95;;;3.13;;
76540;SDS011;65385;55.772;37.658;2024-03-06T01:02:31;6.07;;;3.35;;
76540;SDS011;65385;55.772;37.658;2024-03-06T01:03:31;4.05;;;2.80;;
76540;SDS011;65385;55.772;37.658;2024-03-06T01:04:32;8.93;;;3.63;;
76540;SDS011;65385;55.772;37.658;2024-03-06T01:05:33;5.15;;;3.42;;
76540;SDS011;65385;55.772;37.658;2024-03-06T01:06:33;5.18;;;2.83;;
76540;SDS011;65385;55.772;37.658;2024-03-06T01:07:34;3.70;;;3.28;;
76540;SDS011;65385;55.772;37.658;2024-03-06T01:08:34;7.53;;;3.13;;
76540;SDS011;65385;55.772;37.658;2024-03-06T01:09:36;5.22;;;2.63;;
76540;SDS011;65385;55.772;37.658;2024-03-06T01:10:36;8.45;;;3.10;;
76540;SDS011;65385;55.772;37.658;2024-03-06T01:11:37;4.75;;;2.78;;
76540;SDS011;65385;55.772;37.658;2024-03-06T01:12:39;3.58;;;2.92;;
76540;SDS011;65385;55.772;37.658;2024-03-06T01:13:40;4.88;;;3.00;;
76540;SDS011;65385;55.772;37.658;2024-03-06T01:14:40;5.18;;;2.75;;
76540;SDS011;65385;55.772;37.658;2024-03-06T01:15:42;6.15;;;3.45;;
76540;SDS011;65385;55.772;37.658;2024-03-06T01:16:43;4.05;;;2.83;;
76540;SDS011;65385;55.772;37.658;2024-03-06T01:17:43;4.38;;;2.42;;
76540;SDS011;65385;55.772;37.658;2024-03-06T01:18:44;3.30;;;2.80;;
76540;SDS011;65385;55.772;37.658;2024-03-06T01:19:45;3.95;;;2.85;;
76540;SDS011;65385;55.772;37.658;2024-03-06T01:20:45;4.68;;;2.53;;
76540;SDS011;65385;55.772;37.658;2024-03-06T01:21:46;3.20;;;2.20;;
76540;SDS011;65385;55.772;37.658;2024-03-06T01:22:46;3.67;;;2.72;;
76540;SDS011;65385;55.772;37.658;2024-03-06T01:23:47;3.47;;;2.80;;
76540;SDS011;65385;55.772;37.658;2024-03-06T01:24:48;3.40;;;2.60;;
76540;SDS011;65385;55.772;37.658;2024-03-06T01:25:50;4.80;;;3.28;;
76540;SDS011;65385;55.772;37.658;2024-03-06T01:26:51;3.90;;;2.55;;
76540;SDS011;65385;55.772;37.658;2024-03-06T01:27:52;3.15;;;2.85;;
76540;SDS011;65385;55.772;37.658;2024-03-06T01:28:52;3.85;;;2.42;;
76540;SDS011;65385;55.772;37.658;2024-03-06T01:29:53;6.22;;;2.50;;
76540;SDS011;65385;55.772;37.658;2024-03-06T01:30:54;5.88;;;3.25;;
76540;SDS011;65385;55.772;37.658;2024-03-06T01:31:54;5.60;;;2.60;;
76540;SDS011;65385;55.772;37.658;2024-03-06T01:32:55;4.07;;;2.40;;
76540;SDS011;65385;55.772;37.658;2024-03-06T01:33:55;10.68;;;3.38;;
76540;SDS011;65385;55.772;37.658;2024-03-06T01:34:56;4.93;;;2.60;;
76540;SDS011;65385;55.772;37.658;2024-03-06T01:35:57;3.60;;;2.42;;
76540;SDS011;65385;55.772;37.658;2024-03-06T01:36:57;5.10;;;3.05;;
76540;SDS011;65385;55.772;37.658;2024-03-06T01:37:58;5.65;;;2.97;;
76540;SDS011;65385;55.772;37.658;2024-03-06T01:38:59;4.85;;;3.08;;
76540;SDS011;65385;55.772;37.658;2024-03-06T01:39:59;2.80;;;2.60;;
76540;SDS011;65385;55.772;37.658;2024-03-06T01:41:00;3.25;;;2.45;;
76540;SDS011;65385;55.772;37.658;2024-03-06T01:42:01;4.05;;;3.15;;
76540;SDS011;65385;55.772;37.658;2024-03-06T01:43:02;8.00;;;2.88;;
76540;SDS011;65385;55.772;37.658;2024-03-06T01:44:02;8.73;;;3.90;;
76540;SDS011;65385;55.772;37.658;2024-03-06T01:45:04;5.82;;;3.28;;
76540;SDS011;65385;55.772;37.658;2024-03-06T01:46:05;6.53;;;3.95;;
76540;SDS011;65385;55.772;37.658;2024-03-06T01:47:06;7.90;;;3.60;;
76540;SDS011;65385;55.772;37.658;2024-03-06T01:48:07;5.43;;;3.30;;
76540;SDS011;65385;55.772;37.658;2024-03-06T01:49:08;7.95;;;3.10;;
76540;SDS011;65385;55.772;37.658;2024-03-06T01:50:09;5.20;;;3.20;;
76540;SDS011;65385;55.772;37.658;2024-03-06T01:51:10;6.00;;;3.15;;
76540;SDS011;65385;55.772;37.658;2024-03-06T01:52:11;7.20;;;3.72;;
76540;SDS011;65385;55.772;37.658;2024-03-06T01:53:14;6.63;;;2.97;;
76540;SDS011;65385;55.772;37.658;2024-03-06T01:54:16;5.30;;;3.08;;
76540;SDS011;65385;55.772;37.658;2024-03-06T01:55:18;5.57;;;3.17;;
76540;SDS011;65385;55.772;37.658;2024-03-06T01:56:22;6.40;;;4.63;;
76540;SDS011;65385;55.772;37.658;2024-03-06T01:57:24;6.45;;;3.97;;
76540;SDS011;65385;55.772;37.658;2024-03-06T01:58:24;3.95;;;2.95;;
76540;SDS011;65385;55.772;37.658;2024-03-06T01:59:25;7.32;;;2.80;;
76540;SDS011;65385;55.772;37.658;2024-03-06T02:00:27;5.10;;;3.03;;
76540;SDS011;65385;55.772;37.658;2024-03-06T02:01:28;6.22;;;3.20;;
76540;SDS011;65385;55.772;37.658;2024-03-06T02:02:29;8.00;;;3.65;;
76540;SDS011;65385;55.772;37.658;2024-03-06T02:03:31;7.00;;;3.08;;
76540;SDS011;65385;55.772;37.658;2024-03-06T02:04:32;6.05;;;3.08;;
76540;SDS011;65385;55.772;37.658;2024-03-06T02:05:32;8.05;;;3.75;;
76540;SDS011;65385;55.772;37.658;2024-03-06T02:06:33;7.88;;;3.55;;
76540;SDS011;65385;55.772;37.658;2024-03-06T02:07:34;5.47;;;3.42;;
76540;SDS011;65385;55.772;37.658;2024-03-06T02:08:36;5.43;;;3.50;;
76540;SDS011;65385;55.772;37.658;2024-03-06T02:09:37;6.15;;;4.13;;
76540;SDS011;65385;55.772;37.658;2024-03-06T02:10:39;4.75;;;3.13;;
76540;SDS011;65385;55.772;37.658;2024-03-06T02:11:39;5.70;;;3.47;;
76540;SDS011;65385;55.772;37.658;2024-03-06T02:12:42;5.07;;;3.70;;
76540;SDS011;65385;55.772;37.658;2024-03-06T02:13:43;5.38;;;3.33;;
76540;SDS011;65385;55.772;37.658;2024-03-06T02:14:44;5.97;;;2.67;;
76540;SDS011;65385;55.772;37.658;2024-03-06T02:15:45;4.15;;;2.90;;
76540;SDS011;65385;55.772;37.658;2024-03-06T02:16:46;7.15;;;3.70;;
76540;SDS011;65385;55.772;37.658;2024-03-06T02:18:06;5.72;;;3.30;;
76540;SDS011;65385;55.772;37.658;2024-03-06T02:19:08;5.95;;;4.30;;
76540;SDS011;65385;55.772;37.658;2024-03-06T02:20:09;6.88;;;3.85;;
76540;SDS011;65385;55.772;37.658;2024-03-06T02:21:12;11.55;;;3.60;;
76540;SDS011;65385;55.772;37.658;2024-03-06T02:22:13;6.90;;;3.67;;
76540;SDS011;65385;55.772;37.658;2024-03-06T02:23:14;6.13;;;3.78;;
76540;SDS011;65385;55.772;37.658;2024-03-06T02:24:14;4.13;;;3.00;;
76540;SDS011;65385;55.772;37.658;2024-03-06T02:25:15;5.38;;;3.50;;
76540;SDS011;65385;55.772;37.658;2024-03-06T02:26:17;3.92;;;2.90;;
76540;SDS011;65385;55.772;37.658;2024-03-06T02:27:18;5.07;;;3.13;;
76540;SDS011;65385;55.772;37.658;2024-03-06T02:28:19;4.13;;;2.85;;
76540;SDS011;65385;55.772;37.658;2024-03-06T02:29:19;6.57;;;3.55;;
76540;SDS011;65385;55.772;37.658;2024-03-06T02:30:23;2.50;;;2.38;;
76540;SDS011;65385;55.772;37.658;2024-03-06T02:31:24;4.75;;;2.97;;
76540;SDS011;65385;55.772;37.658;2024-03-06T02:32:24;4.13;;;3.67;;
76540;SDS011;65385;55.772;37.658;2024-03-06T02:33:25;6.13;;;2.88;;
76540;SDS011;65385;55.772;37.658;2024-03-06T02:34:26;3.22;;;2.92;;
76540;SDS011;65385;55.772;37.658;2024-03-06T02:35:26;5.00;;;3.47;;
76540;SDS011;65385;55.772;37.658;2024-03-06T02:36:27;6.32;;;2.88;;
76540;SDS011;65385;55.772;37.658;2024-03-06T02:37:28;4.45;;;2.80;;
76540;SDS011;65385;55.772;37.658;2024-03-06T02:38:29;2.97;;;2.70;;
76540;SDS011;65385;55.772;37.658;2024-03-06T02:39:29;2.90;;;2.60;;
76540;SDS011;65385;55.772;37.658;2024-03-06T02:40:30;6.47;;;3.45;;
76540;SDS011;65385;55.772;37.658;2024-03-06T02:41:31;7.13;;;3.92;;
76540;SDS011;65385;55.772;37.658;2024-03-06T02:42:32;8.30;;;3.50;;
76540;SDS011;65385;55.772;37.658;2024-03-06T02:43:33;6.28;;;3.08;;
76540;SDS011;65385;55.772;37.658;2024-03-06T02:44:34;3.55;;;3.05;;
76540;SDS011;65385;55.772;37.658;2024-03-06T02:45:34;4.85;;;2.75;;
76540;SDS011;65385;55.772;37.658;2024-03-06T02:46:35;5.03;;;3.65;;
76540;SDS011;65385;55.772;37.658;2024-03-06T02:47:36;5.45;;;3.05;;
76540;SDS011;65385;55.772;37.658;2024-03-06T02:48:36;4.93;;;2.75;;
76540;SDS011;65385;55.772;37.658;2024-03-06T02:49:37;3.15;;;2.72;;
76540;SDS011;65385;55.772;37.658;2024-03-06T02:50:37;7.20;;;3.45;;
76540;SDS011;65385;55.772;37.658;2024-03-06T02:51:38;3.55;;;2.33;;
76540;SDS011;65385;55.772;37.658;2024-03-06T02:52:39;4.88;;;2.88;;
76540;SDS011;65385;55.772;37.658;2024-03-06T02:53:40;7.10;;;3.63;;
76540;SDS011;65385;55.772;37.658;2024-03-06T02:54:41;3.45;;;2.88;;
76540;SDS011;65385;55.772;37.658;2024-03-06T02:55:42;3.58;;;3.00;;
76540;SDS011;65385;55.772;37.658;2024-03-06T02:56:43;5.95;;;4.22;;
76540;SDS011;65385;55.772;37.658;2024-03-06T02:57:43;5.15;;;3.10;;
76540;SDS011;65385;55.772;37.658;2024-03-06T02:58:44;8.15;;;4.43;;
76540;SDS011;65385;55.772;37.658;2024-03-06T02:59:45;8.63;;;3.75;;
76540;SDS011;65385;55.772;37.658;2024-03-06T03:00:46;6.68;;;4.20;;
76540;SDS011;65385;55.772;37.658;2024-03-06T03:01:48;4.72;;;3.53;;
76540;SDS011;65385;55.772;37.658;2024-03-06T03:02:48;7.22;;;3.85;;
76540;SDS011;65385;55.772;37.658;2024-03-06T03:03:49;6.07;;;3.88;;
76540;SDS011;65385;55.772;37.658;2024-03-06T03:04:51;10.02;;;3.83;;
76540;SDS011;65385;55.772;37.658;2024-03-06T03:05:53;4.60;;;3.00;;
76540;SDS011;65385;55.772;37.658;2024-03-06T03:06:53;7.85;;;3.67;;
76540;SDS011;65385;55.772;37.658;2024-03-06T03:07:54;8.15;;;4.05;;
76540;SDS011;65385;55.772;37.658;2024-03-06T03:08:55;6.45;;;3.58;;
76540;SDS011;65385;55.772;37.658;2024-03-06T03:09:56;9.48;;;4.78;;
76540;SDS011;65385;55.772;37.658;2024-03-06T03:10:57;5.90;;;3.78;;
76540;SDS011;65385;55.772;37.658;2024-03-06T03:11:57;8.18;;;3.17;;
76540;SDS011;65385;55.772;37.658;2024-03-06T03:12:59;6.38;;;2.88;;
76540;SDS011;65385;55.772;37.658;2024-03-06T03:14:00;7.43;;;3.83;;
76540;SDS011;65385;55.772;37.658;2024-03-06T03:15:00;7.00;;;4.05;;
76540;SDS011;65385;55.772;37.658;2024-03-06T03:16:02;6.35;;;3.63;;
76540;SDS011;65385;55.772;37.658;2024-03-06T03:17:04;7.07;;;3.63;;
76540;SDS011;65385;55.772;37.658;2024-03-06T03:18:06;4.70;;;3.72;;
76540;SDS011;65385;55.772;37.658;2024-03-06T03:19:06;5.45;;;3.55;;
76540;SDS011;65385;55.772;37.658;2024-03-06T03:20:08;5.25;;;3.88;;
76540;SDS011;65385;55.772;37.658;2024-03-06T03:21:12;3.78;;;2.40;;
76540;SDS011;65385;55.772;37.658;2024-03-06T03:22:16;3.40;;;2.85;;
76540;SDS011;65385;55.772;37.658;2024-03-06T03:23:16;7.78;;;3.83;;
76540;SDS011;65385;55.772;37.658;2024-03-06T03:24:22;2.60;;;2.40;;
76540;SDS011;65385;55.772;37.658;2024-03-06T03:25:24;4.97;;;2.40;;
76540;SDS011;65385;55.772;37.658;2024-03-06T03:26:24;2.60;;;2.30;;
76540;SDS011;65385;55.772;37.658;2024-03-06T03:27:25;7.25;;;3.10;;
76540;SDS011;65385;55.772;37.658;2024-03-06T03:28:25;5.82;;;3.00;;
76540;SDS011;65385;55.772;37.658;2024-03-06T03:29:27;7.13;;;3.88;;
76540;SDS011;65385;55.772;37.658;2024-03-06T03:30:28;8.00;;;3.78;;
76540;SDS011;65385;55.772;37.658;2024-03-06T03:31:28;6.25;;;3.10;;
76540;SDS011;65385;55.772;37.658;2024-03-06T03:32:29;4.18;;;3.58;;
76540;SDS011;65385;55.772;37.658;2024-03-06T03:33:30;6.50;;;3.38;;
76540;SDS011;65385;55.772;37.658;2024-03-06T03:34:30;5.78;;;3.60;;
76540;SDS011;65385;55.772;37.658;2024-03-06T03:35:31;8.43;;;3.10;;
76540;SDS011;65385;55.772;37.658;2024-03-06T03:36:32;6.82;;;3.60;;
76540;SDS011;65385;55.772;37.658;2024-03-06T03:37:33;5.95;;;3.15;;
76540;SDS011;65385;55.772;37.658;2024-03-06T03:38:38;3.05;;;2.53;;
76540;SDS011;65385;55.772;37.658;2024-03-06T03:39:41;6.10;;;3.33;;
76540;SDS011;65385;55.772;37.658;2024-03-06T03:40:44;4.45;;;3.78;;
76540;SDS011;65385;55.772;37.658;2024-03-06T03:41:45;6.78;;;3.20;;
76540;SDS011;65385;55.772;37.658;2024-03-06T03:42:47;3.45;;;3.17;;
76540;SDS011;65385;55.772;37.658;2024-03-06T03:43:47;6.95;;;3.22;;
76540;SDS011;65385;55.772;37.658;2024-03-06T03:44:49;5.28;;;3.42;;
76540;SDS011;65385;55.772;37.658;2024-03-06T03:45:49;6.47;;;3.10;;
76540;SDS011;65385;55.772;37.658;2024-03-06T03:46:50;6.95;;;3.00;;
76540;SDS011;65385;55.772;37.658;2024-03-06T03:47:51;4.40;;;3.95;;
76540;SDS011;65385;55.772;37.658;2024-03-06T03:48:51;5.88;;;3.47;;
76540;SDS011;65385;55.772;37.658;2024-03-06T03:49:52;6.13;;;3.10;;
76540;SDS011;65385;55.772;37.658;2024-03-06T03:50:52;7.97;;;4.00;;
76540;SDS011;65385;55.772;37.658;2024-03-06T03:51:53;5.22;;;3.22;;
76540;SDS011;65385;55.772;37.658;2024-03-06T03:52:54;11.00;;;4.05;;
76540;SDS011;65385;55.772;37.658;2024-03-06T03:53:54;7.25;;;3.67;;
76540;SDS011;65385;55.772;37.658;2024-03-06T03:54:55;7.50;;;3.97;;
76540;SDS011;65385;55.772;37.658;2024-03-06T03:55:55;6.75;;;3.83;;
76540;SDS011;65385;55.772;37.658;2024-03-06T03:56:56;4.90;;;3.22;;
76540;SDS011;65385;55.772;37.658;2024-03-06T03:57:59;7.18;;;3.65;;
76540;SDS011;65385;55.772;37.658;2024-03-06T03:59:00;7.78;;;4.28;;
76540;SDS011;65385;55.772;37.658;2024-03-06T04:00:00;6.72;;;4.18;;
76540;SDS011;65385;55.772;37.658;2024-03-06T04:01:02;14.52;;;4.18;;
76540;SDS011;65385;55.772;37.658;2024-03-06T04:02:02;9.40;;;4.22;;
76540;SDS011;65385;55.772;37.658;2024-03-06T04:03:04;10.43;;;5.05;;
76540;SDS011;65385;55.772;37.658;2024-03-06T04:04:05;13.50;;;6.28;;
76540;SDS011;65385;55.772;37.658;2024-03-06T04:05:08;12.40;;;5.70;;
76540;SDS011;65385;55.772;37.658;2024-03-06T04:06:10;12.43;;;5.38;;
76540;SDS011;65385;55.772;37.658;2024-03-06T04:07:11;10.65;;;5.15;;
76540;SDS011;65385;55.772;37.658;2024-03-06T04:08:11;9.88;;;4.45;;
76540;SDS011;65385;55.772;37.658;2024-03-06T04:09:12;7.28;;;4.43;;
76540;SDS011;65385;55.772;37.658;2024-03-06T04:10:15;8.18;;;4.10;;
76540;SDS011;65385;55.772;37.658;2024-03-06T04:11:15;9.05;;;3.85;;
76540;SDS011;65385;55.772;37.658;2024-03-06T04:12:16;8.55;;;3.90;;
76540;SDS011;65385;55.772;37.658;2024-03-06T04:13:16;8.90;;;4.20;;
76540;SDS011;65385;55.772;37.658;2024-03-06T04:14:19;8.88;;;4.85;;
76540;SDS011;65385;55.772;37.658;2024-03-06T04:15:20;10.93;;;4.88;;
76540;SDS011;65385;55.772;37.658;2024-03-06T04:16:21;16.83;;;6.15;;
76540;SDS011;65385;55.772;37.658;2024-03-06T04:17:21;13.15;;;6.20;;
76540;SDS011;65385;55.772;37.658;2024-03-06T04:18:22;9.00;;;5.57;;
76540;SDS011;65385;55.772;37.658;2024-03-06T04:19:22;14.75;;;5.47;;
76540;SDS011;65385;55.772;37.658;2024-03-06T04:20:23;7.38;;;4.88;;
76540;SDS011;65385;55.772;37.658;2024-03-06T04:21:24;14.32;;;5.65;;
76540;SDS011;65385;55.772;37.658;2024-03-06T04:22:24;18.20;;;6.55;;
76540;SDS011;65385;55.772;37.658;2024-03-06T04:23:25;8.88;;;4.55;;
76540;SDS011;65385;55.772;37.658;2024-03-06T04:24:27;8.75;;;4.20;;
76540;SDS011;65385;55.772;37.658;2024-03-06T04:25:29;12.70;;;5.50;;
76540;SDS011;65385;55.772;37.658;2024-03-06T04:26:29;8.63;;;4.57;;
76540;SDS011;65385;55.772;37.658;2024-03-06T04:27:30;9.02;;;5.00;;
76540;SDS011;65385;55.772;37.658;2024-03-06T04:28:31;7.10;;;3.67;;
76540;SDS011;65385;55.772;37.658;2024-03-06T04:29:32;6.95;;;3.30;;
76540;SDS011;65385;55.772;37.658;2024-03-06T04:30:33;4.72;;;2.92;;
76540;SDS011;65385;55.772;37.658;2024-03-06T04:31:35;5.35;;;3.03;;
76540;SDS011;65385;55.772;37.658;2024-03-06T04:32:36;6.68;;;3.55;;
76540;SDS011;65385;55.772;37.658;2024-03-06T04:33:36;10.40;;;3.40;;
76540;SDS011;65385;55.772;37.658;2024-03-06T04:34:37;5.97;;;3.10;;
76540;SDS011;65385;55.772;37.658;2024-03-06T04:35:38;5.53;;;3.58;;
76540;SDS011;65385;55.772;37.658;2024-03-06T04:36:38;8.13;;;4.10;;
76540;SDS011;65385;55.772;37.658;2024-03-06T04:37:39;6.05;;;3.58;;
76540;SDS011;65385;55.772;37.658;2024-03-06T04:38:40;7.50;;;3.58;;
76540;SDS011;65385;55.772;37.658;2024-03-06T04:39:40;11.75;;;4.30;;
76540;SDS011;65385;55.772;37.658;2024-03-06T04:40:41;5.85;;;3.13;;
76540;SDS011;65385;55.772;37.658;2024-03-06T04:41:42;7.03;;;3.90;;
76540;SDS011;65385;55.772;37.658;2024-03-06T04:42:42;13.13;;;4.53;;
76540;SDS011;65385;55.772;37.658;2024-03-06T04:43:46;8.65;;;3.20;;
76540;SDS011;65385;55.772;37.658;2024-03-06T04:44:46;9.40;;;3.90;;
76540;SDS011;65385;55.772;37.658;2024-03-06T04:45:47;8.00;;;4.22;;
76540;SDS011;65385;55.772;37.658;2024-03-06T04:46:49;10.73;;;4.05;;
76540;SDS011;65385;55.772;37.658;2024-03-06T04:47:51;9.10;;;4.53;;
76540;SDS011;65385;55.772;37.658;2024-03-06T04:48:51;5.03;;;3.67;;
76540;SDS011;65385;55.772;37.658;2024-03-06T04:49:53;5.90;;;3.53;;
76540;SDS011;65385;55.772;37.658;2024-03-06T04:50:54;7.00;;;3.00;;
76540;SDS011;65385;55.772;37.658;2024-03-06T04:51:55;6.35;;;4.03;;
76540;SDS011;65385;55.772;37.658;2024-03-06T04:52:56;6.25;;;3.97;;
76540;SDS011;65385;55.772;37.658;2024-03-06T04:53:56;6.25;;;3.80;;
76540;SDS011;65385;55.772;37.658;2024-03-06T04:54:57;9.18;;;4.57;;
76540;SDS011;65385;55.772;37.658;2024-03-06T04:55:57;11.43;;;5.57;;
76540;SDS011;65385;55.772;37.658;2024-03-06T04:56:58;10.05;;;4.55;;
76540;SDS011;65385;55.772;37.658;2024-03-06T04:57:59;6.35;;;3.70;;
76540;SDS011;65385;55.772;37.658;2024-03-06T04:59:00;7.85;;;3.85;;
76540;SDS011;65385;55.772;37.658;2024-03-06T05:00:03;10.70;;;4.82;;
76540;SDS011;65385;55.772;37.658;2024-03-06T05:01:11;8.27;;;4.18;;
76540;SDS011;65385;55.772;37.658;2024-03-06T05:02:12;8.35;;;3.15;;
76540;SDS011;65385;55.772;37.658;2024-03-06T05:03:13;12.25;;;4.43;;
76540;SDS011;65385;55.772;37.658;2024-03-06T05:04:15;4.53;;;3.13;;
76540;SDS011;65385;55.772;37.658;2024-03-06T05:05:16;8.40;;;3.97;;
76540;SDS011;65385;55.772;37.658;2024-03-06T05:06:17;9.40;;;3.88;;
76540;SDS011;65385;55.772;37.658;2024-03-06T05:07:17;5.35;;;3.25;;
76540;SDS011;65385;55.772;37.658;2024-03-06T05:08:18;9.35;;;3.85;;
76540;SDS011;65385;55.772;37.658;2024-03-06T05:09:18;6.70;;;3.10;;
76540;SDS011;65385;55.772;37.658;2024-03-06T05:10:19;13.43;;;4.90;;
76540;SDS011;65385;55.772;37.658;2024-03-06T05:11:19;11.25;;;3.42;;
76540;SDS011;65385;55.772;37.658;2024-03-06T05:12:20;9.48;;;3.72;;
76540;SDS011;65385;55.772;37.658;2024-03-06T05:13:21;10.52;;;4.10;;
76540;SDS011;65385;55.772;37.658;2024-03-06T05:14:22;9.73;;;4.10;;
76540;SDS011;65385;55.772;37.658;2024-03-06T05:15:22;7.03;;;3.67;;
76540;SDS011;65385;55.772;37.658;2024-03-06T05:16:23;6.75;;;3.63;;
76540;SDS011;65385;55.772;37.658;2024-03-06T05:17:24;9.52;;;4.00;;
76540;SDS011;65385;55.772;37.658;2024-03-06T05:18:24;6.10;;;3.20;;
76540;SDS011;65385;55.772;37.658;2024-03-06T05:19:25;8.27;;;4.32;;
76540;SDS011;65385;55.772;37.658;2024-03-06T05:20:32;9.02;;;3.60;;
76540;SDS011;65385;55.772;37.658;2024-03-06T05:21:32;7.70;;;3.28;;
76540;SDS011;65385;55.772;37.658;2024-03-06T05:22:35;7.30;;;3.17;;
76540;SDS011;65385;55.772;37.658;2024-03-06T05:23:36;6.53;;;3.78;;
76540;SDS011;65385;55.772;37.658;2024-03-06T05:24:37;9.82;;;4.53;;
76540;SDS011;65385;55.772;37.658;2024-03-06T05:25:38;6.88;;;3.90;;
76540;SDS011;65385;55.772;37.658;2024-03-06T05:26:38;5.95;;;3.58;;
76540;SDS011;65385;55.772;37.658;2024-03-06T05:27:39;10.98;;;4.28;;
76540;SDS011;65385;55.772;37.658;2024-03-06T05:28:40;5.78;;;3.55;;
76540;SDS011;65385;55.772;37.658;2024-03-06T05:29:40;10.52;;;3.88;;
76540;SDS011;65385;55.772;37.658;2024-03-06T05:30:41;4.40;;;2.55;;
76540;SDS011;65385;55.772;37.658;2024-03-06T05:31:41;7.53;;;3.50;;
76540;SDS011;65385;55.772;37.658;2024-03-06T05:32:42;6.95;;;3.67;;
76540;SDS011;65385;55.772;37.658;2024-03-06T05:33:43;5.80;;;3.95;;
76540;SDS011;65385;55.772;37.658;2024-03-06T05:34:44;10.10;;;4.93;;
76540;SDS011;65385;55.772;37.658;2024-03-06T05:35:44;13.10;;;4.35;;
76540;SDS011;65385;55.772;37.658;2024-03-06T05:36:45;8.10;;;3.70;;
76540;SDS011;65385;55.772;37.658;2024-03-06T05:37:45;7.85;;;3.75;;
76540;SDS011;65385;55.772;37.658;2024-03-06T05:38:46;6.78;;;3.97;;
76540;SDS011;65385;55.772;37.658;2024-03-06T05:39:48;3.22;;;2.72;;
76540;SDS011;65385;55.772;37.658;2024-03-06T05:40:49;9.93;;;4.20;;
76540;SDS011;65385;55.772;37.658;2024-03-06T05:41:49;5.82;;;2.97;;
76540;SDS011;65385;55.772;37.658;2024-03-06T05:42:50;7.50;;;3.30;;
76540;SDS011;65385;55.772;37.658;2024-03-06T05:43:51;6.07;;;3.25;;
76540;SDS011;65385;55.772;37.658;2024-03-06T05:44:52;6.60;;;3.22;;
76540;SDS011;65385;55.772;37.658;2024-03-06T05:45:54;6.95;;;2.85;;
76540;SDS011;65385;55.772;37.658;2024-03-06T05:46:55;8.55;;;4.10;;
76540;SDS011;65385;55.772;37.658;2024-03-06T05:47:57;11.18;;;4.22;;
76540;SDS011;65385;55.772;37.658;2024-03-06T05:48:58;4.95;;;3.45;;
76540;SDS011;65385;55.772;37.658;2024-03-06T05:49:59;4.53;;;3.10;;
76540;SDS011;65385;55.772;37.658;2024-03-06T05:51:00;4.45;;;3.08;;
76540;SDS011;65385;55.772;37.658;2024-03-06T05:52:01;6.22;;;3.13;;
76540;SDS011;65385;55.772;37.658;2024-03-06T05:53:03;7.80;;;3.60;;
76540;SDS011;65385;55.772;37.658;2024-03-06T05:54:03;6.18;;;2.97;;
76540;SDS011;65385;55.772;37.658;2024-03-06T05:55:06;7.93;;;3.13;;
76540;SDS011;65385;55.772;37.658;2024-03-06T05:56:07;10.32;;;4.22;;
76540;SDS011;65385;55.772;37.658;2024-03-06T05:57:08;10.40;;;4.30;;
76540;SDS011;65385;55.772;37.658;2024-03-06T05:58:09;4.55;;;2.40;;
76540;SDS011;65385;55.772;37.658;2024-03-06T05:59:10;7.03;;;3.55;;
76540;SDS011;65385;55.772;37.658;2024-03-06T06:00:11;7.20;;;3.55;;
76540;SDS011;65385;55.772;37.658;2024-03-06T06:01:13;7.72;;;3.75;;
76540;SDS011;65385;55.772;37.658;2024-03-06T06:02:15;7.97;;;3.78;;